createdAt,value
2022-07-30T00:01:42.818Z,100649.80
2022-07-30T00:04:13.108Z,100644.48
2022-07-30T00:06:42.705Z,100646.42
2022-07-30T00:09:13.036Z,100640.55
2022-07-30T00:11:42.645Z,100644.17
2022-07-30T00:14:13.274Z,100645.28
2022-07-30T00:16:43.623Z,100642.75
2022-07-30T00:19:13.145Z,100639.95
2022-07-30T00:21:42.524Z,100635.73
2022-07-30T00:24:12.730Z,100634.30
2022-07-30T00:26:42.547Z,100641.17
2022-07-30T00:29:11.679Z,100630.79
2022-07-30T00:31:41.623Z,100633.55
2022-07-30T00:34:12.968Z,100632.95
2022-07-30T00:36:42.027Z,100629.55
2022-07-30T00:39:13.702Z,100630.34
2022-07-30T00:42:02.318Z,100628.62
2022-07-30T00:44:32.405Z,100625.84
2022-07-30T00:47:03.047Z,100624.42
2022-07-30T00:49:34.543Z,100624.11
2022-07-30T00:52:06.076Z,100624.91
2022-07-30T00:54:35.465Z,100625.12
2022-07-30T00:57:04.908Z,100631.23
2022-07-30T00:59:34.378Z,100624.49
2022-07-30T01:02:06.430Z,100621.13
2022-07-30T01:04:37.171Z,100621.39
2022-07-30T01:07:06.189Z,100616.92
2022-07-30T01:09:36.637Z,100620.53
2022-07-30T01:12:07.116Z,100620.23
2022-07-30T01:14:37.215Z,100613.75
2022-07-30T01:17:07.142Z,100608.40
2022-07-30T01:19:52.604Z,100612.55
2022-07-30T01:22:55.427Z,100604.69
2022-07-30T01:25:53.044Z,100609.95
2022-07-30T01:28:36.066Z,100598.78
2022-07-30T01:31:07.317Z,100604.60
2022-07-30T01:33:42.005Z,100601.48
2022-07-30T01:36:14.749Z,100593.59
2022-07-30T01:38:46.415Z,100595.78
2022-07-30T01:41:18.196Z,100604.38
2022-07-30T01:43:48.638Z,100599.88
2022-07-30T01:46:18.466Z,100604.25
2022-07-30T01:48:50.629Z,100600.30
2022-07-30T01:51:20.581Z,100601.67
2022-07-30T01:53:53.489Z,100597.47
2022-07-30T01:56:25.175Z,100596.63
2022-07-30T01:58:56.612Z,100591.60
2022-07-30T02:01:29.747Z,100589.61
2022-07-30T02:04:02.568Z,100585.66
2022-07-30T02:06:37.433Z,100586.13
2022-07-30T02:09:11.101Z,100587.21
2022-07-30T02:12:03.986Z,100587.47
2022-07-30T02:14:45.994Z,100587.77
2022-07-30T02:17:21.428Z,100587.77
2022-07-30T02:19:54.826Z,100587.99
2022-07-30T02:22:26.945Z,100587.18
2022-07-30T02:24:57.099Z,100592.20
2022-07-30T02:27:32.705Z,100594.70
2022-07-30T02:30:03.383Z,100591.09
2022-07-30T02:32:37.689Z,100583.32
2022-07-30T02:35:18.499Z,100594.48
2022-07-30T02:37:50.686Z,100596.72
2022-07-30T02:40:21.077Z,100601.75
2022-07-30T02:42:52.680Z,100602.91
2022-07-30T02:45:25.184Z,100599.22
2022-07-30T02:48:01.275Z,100603.11
2022-07-30T02:50:32.776Z,100608.70
2022-07-30T02:53:03.156Z,100606.73
2022-07-30T02:55:34.925Z,100609.23
2022-07-30T02:58:07.341Z,100611.73
2022-07-30T03:00:36.868Z,100615.62
2022-07-30T03:03:08.457Z,100618.66
2022-07-30T03:05:41.854Z,100613.94
2022-07-30T03:08:11.600Z,100613.38
2022-07-30T03:10:41.251Z,100613.99
2022-07-30T03:13:12.892Z,100617.91
2022-07-30T03:15:46.446Z,100617.36
2022-07-30T03:18:17.168Z,100614.62
2022-07-30T03:20:51.763Z,100614.11
2022-07-30T03:23:21.817Z,100612.48
2022-07-30T03:26:01.551Z,100613.64
2022-07-30T03:28:35.128Z,100615.08
2022-07-30T03:31:05.247Z,100615.69
2022-07-30T03:33:38.687Z,100615.17
2022-07-30T03:36:08.411Z,100613.53
2022-07-30T03:38:38.870Z,100613.61
2022-07-30T03:41:11.086Z,100615.31
2022-07-30T03:43:43.381Z,100610.60
2022-07-30T03:46:13.516Z,100615.99
2022-07-30T03:48:45.840Z,100609.33
2022-07-30T03:51:18.861Z,100609.38
2022-07-30T03:53:51.662Z,100608.58
2022-07-30T03:56:41.107Z,100612.81
2022-07-30T03:59:17.449Z,100612.02
2022-07-30T04:01:46.748Z,100612.05
2022-07-30T04:04:21.188Z,100612.93
2022-07-30T04:06:52.068Z,100607.11
2022-07-30T04:09:21.419Z,100607.42
2022-07-30T04:11:52.061Z,100609.70
2022-07-30T04:14:25.274Z,100610.59
2022-07-30T04:17:05.461Z,100610.32
2022-07-30T04:19:40.390Z,100610.32
2022-07-30T04:22:09.976Z,100610.32
2022-07-30T04:24:41.219Z,100605.04
2022-07-30T04:27:11.177Z,100605.95
2022-07-30T04:29:43.252Z,100606.25
2022-07-30T04:32:12.956Z,100610.17
2022-07-30T04:35:00.704Z,100611.31
2022-07-30T04:37:41.650Z,100605.74
2022-07-30T04:40:11.727Z,100607.16
2022-07-30T04:42:42.236Z,100604.69
2022-07-30T04:45:13.891Z,100608.06
2022-07-30T04:48:00.705Z,100604.73
2022-07-30T04:50:51.360Z,100603.92
2022-07-30T04:53:20.732Z,100608.12
2022-07-30T04:55:56.503Z,100598.92
2022-07-30T04:58:29.719Z,100602.29
2022-07-30T05:01:01.142Z,100599.25
2022-07-30T05:03:32.271Z,100599.27
2022-07-30T05:06:02.074Z,100595.36
2022-07-30T05:08:33.110Z,100592.28
2022-07-30T05:11:06.587Z,100596.23
2022-07-30T05:13:38.286Z,100592.89
2022-07-30T05:16:11.731Z,100595.72
2022-07-30T05:18:42.314Z,100595.73
2022-07-30T05:21:13.613Z,100598.55
2022-07-30T05:23:50.608Z,100605.27
2022-07-30T05:26:22.024Z,100608.64
2022-07-30T05:28:57.015Z,100608.09
2022-07-30T05:31:47.482Z,100608.11
2022-07-30T05:34:19.779Z,100613.16
2022-07-30T05:36:49.868Z,100620.44
2022-07-30T05:39:19.127Z,100611.77
2022-07-30T05:41:59.622Z,100619.05
2022-07-30T05:44:31.252Z,100613.74
2022-07-30T05:47:02.519Z,100619.34
2022-07-30T05:49:34.132Z,100623.54
2022-07-30T05:52:06.481Z,100620.75
2022-07-30T05:54:36.983Z,100623.03
2022-07-30T05:57:10.885Z,100618.56
2022-07-30T05:59:42.057Z,100617.72
2022-07-30T06:02:12.887Z,100616.36
2022-07-30T06:04:53.220Z,100624.20
2022-07-30T06:07:23.122Z,100621.68
2022-07-30T06:09:54.056Z,100620.27
2022-07-30T06:12:24.013Z,100618.59
2022-07-30T06:14:53.180Z,100622.52
2022-07-30T06:17:27.313Z,100619.15
2022-07-30T06:20:13.196Z,100617.48
2022-07-30T06:22:47.909Z,100616.85
2022-07-30T06:25:19.726Z,100614.52
2022-07-30T06:27:50.299Z,100611.24
2022-07-30T06:30:20.316Z,100608.48
2022-07-30T06:32:52.651Z,100605.39
2022-07-30T06:35:22.543Z,100599.07
2022-07-30T06:38:00.566Z,100608.25
2022-07-30T06:40:26.542Z,100612.11
2022-07-30T06:43:05.469Z,100608.44
2022-07-30T06:45:39.455Z,100605.93
2022-07-30T06:48:21.900Z,100605.37
2022-07-30T06:50:52.344Z,100605.95
2022-07-30T06:53:22.486Z,100600.55
2022-07-30T06:55:58.422Z,100605.73
2022-07-30T06:58:29.562Z,100603.54
2022-07-30T07:01:00.801Z,100606.63
2022-07-30T07:03:39.962Z,100614.09
2022-07-30T07:06:05.618Z,100607.88
2022-07-30T07:08:38.042Z,100607.02
2022-07-30T07:11:08.541Z,100605.73
2022-07-30T07:13:41.190Z,100601.91
2022-07-30T07:16:11.703Z,100597.34
2022-07-30T07:18:44.820Z,100588.11
2022-07-30T07:21:15.311Z,100588.11
2022-07-30T07:23:45.714Z,100588.94
2022-07-30T07:26:17.663Z,100581.38
2022-07-30T07:28:48.887Z,100583.68
2022-07-30T07:32:02.820Z,100585.22
2022-07-30T07:33:54.835Z,100579.61
2022-07-30T07:36:25.542Z,100586.95
2022-07-30T07:38:55.170Z,100587.65
2022-07-30T07:41:26.116Z,100581.96
2022-07-30T07:43:56.615Z,100576.52
2022-07-30T07:46:33.771Z,100580.23
2022-07-30T07:49:02.658Z,100580.11
2022-07-30T07:51:47.283Z,100574.34
2022-07-30T07:54:20.886Z,100577.94
2022-07-30T07:56:39.481Z,100575.69
2022-07-30T07:59:10.435Z,100574.47
2022-07-30T08:01:42.719Z,100575.63
2022-07-30T08:04:15.062Z,100564.39
2022-07-30T08:07:05.779Z,100570.72
2022-07-30T08:09:44.737Z,100574.22
2022-07-30T08:12:19.068Z,100567.98
2022-07-30T08:14:54.990Z,100574.89
2022-07-30T08:17:45.979Z,100570.55
2022-07-30T08:20:22.643Z,100554.78
2022-07-30T08:22:55.382Z,100557.23
2022-07-30T08:25:29.222Z,100559.06
2022-07-30T08:28:02.470Z,100552.36
2022-07-30T08:33:06.130Z,100550.61
2022-07-30T08:35:36.656Z,100540.67
2022-07-30T08:38:10.578Z,100537.25
2022-07-30T08:40:43.762Z,100543.62
2022-07-30T08:43:17.429Z,100541.36
2022-07-30T08:45:47.818Z,100534.97
2022-07-30T08:48:26.154Z,100531.59
2022-07-30T08:50:56.423Z,100523.02
2022-07-30T08:53:28.174Z,100520.57
2022-07-30T08:55:59.491Z,100520.33
2022-07-30T08:58:35.297Z,100511.56
2022-07-30T09:01:09.222Z,100514.70
2022-07-30T09:03:44.388Z,100512.98
2022-07-30T09:06:13.257Z,100502.72
2022-07-30T09:08:42.994Z,100499.77
2022-07-30T09:11:13.465Z,100499.92
2022-07-30T09:13:42.825Z,100513.67
2022-07-30T09:16:24.072Z,100501.63
2022-07-30T09:18:54.036Z,100499.75
2022-07-30T09:21:28.634Z,100497.63
2022-07-30T09:24:11.701Z,100499.45
2022-07-30T09:27:05.957Z,100496.96
2022-07-30T09:29:41.084Z,100499.02
2022-07-30T09:32:30.559Z,100501.20
2022-07-30T09:35:16.299Z,100510.81
2022-07-30T09:38:06.663Z,100503.06
2022-07-30T09:40:57.537Z,100503.67
2022-07-30T09:43:50.182Z,100499.84
2022-07-30T09:46:51.728Z,100500.27
2022-07-30T09:49:34.254Z,100503.44
2022-07-30T09:52:04.666Z,100482.45
2022-07-30T09:54:51.053Z,100496.74
2022-07-30T09:57:27.606Z,100496.96
2022-07-30T09:59:57.463Z,100498.46
2022-07-30T10:02:33.185Z,100502.54
2022-07-30T10:05:22.051Z,100504.70
2022-07-30T10:08:01.764Z,100490.30
2022-07-30T10:10:33.760Z,100496.04
2022-07-30T10:13:08.057Z,100495.86
2022-07-30T10:15:38.128Z,100495.78
2022-07-30T10:18:08.490Z,100495.34
2022-07-30T10:20:53.224Z,100489.93
2022-07-30T10:23:44.183Z,100492.66
2022-07-30T10:26:22.185Z,100493.82
2022-07-30T10:29:13.180Z,100497.48
2022-07-30T10:31:54.233Z,100496.91
2022-07-30T10:34:23.723Z,100494.66
2022-07-30T10:37:00.893Z,100495.23
2022-07-30T10:39:36.777Z,100486.83
2022-07-30T10:42:38.243Z,100488.57
2022-07-30T10:45:19.783Z,100491.22
2022-07-30T10:47:53.258Z,100488.37
2022-07-30T10:50:26.265Z,100485.11
2022-07-30T10:53:00.980Z,100482.94
2022-07-30T10:55:38.990Z,100481.88
2022-07-30T10:58:12.354Z,100481.73
2022-07-30T11:01:00.790Z,100486.91
2022-07-30T11:03:41.432Z,100475.77
2022-07-30T11:06:24.763Z,100478.09
2022-07-30T11:08:57.227Z,100474.52
2022-07-30T11:12:01.367Z,100467.94
2022-07-30T11:14:04.438Z,100472.09
2022-07-30T11:16:42.258Z,100469.89
2022-07-30T11:19:56.432Z,100465.80
2022-07-30T11:21:49.394Z,100466.23
2022-07-30T11:24:45.805Z,100461.00
2022-07-30T11:27:41.439Z,100457.78
2022-07-30T11:30:24.376Z,100465.83
2022-07-30T11:33:07.686Z,100464.97
2022-07-30T11:35:38.134Z,100458.73
2022-07-30T11:38:14.019Z,100462.06
2022-07-30T11:40:51.588Z,100454.92
2022-07-30T11:43:35.677Z,100439.63
2022-07-30T11:46:10.244Z,100442.96
2022-07-30T11:49:03.624Z,100443.47
2022-07-30T11:51:42.834Z,100443.21
2022-07-30T11:54:12.734Z,100433.97
2022-07-30T11:56:54.442Z,100429.48
2022-07-30T11:59:24.429Z,100438.22
2022-07-30T12:01:56.083Z,100433.30
2022-07-30T12:04:25.928Z,100434.70
2022-07-30T12:06:55.539Z,100435.39
2022-07-30T12:09:29.684Z,100422.92
2022-07-30T12:12:00.954Z,100419.84
2022-07-30T12:14:39.648Z,100412.27
2022-07-30T12:17:14.901Z,100420.07
2022-07-30T12:19:48.318Z,100413.48
2022-07-30T12:22:19.808Z,100412.73
2022-07-30T12:24:50.003Z,100410.56
2022-07-30T12:27:19.449Z,100399.63
2022-07-30T12:29:49.075Z,100402.20
2022-07-30T12:32:18.762Z,100402.70
2022-07-30T12:34:58.128Z,100399.25
2022-07-30T12:37:27.108Z,100393.97
2022-07-30T12:40:15.351Z,100387.64
2022-07-30T12:42:53.695Z,100383.84
2022-07-30T12:45:51.775Z,100377.30
2022-07-30T12:48:04.240Z,100377.30
2022-07-30T12:50:33.751Z,100383.73
2022-07-30T12:53:06.453Z,100378.78
2022-07-30T12:55:37.319Z,100373.20
2022-07-30T12:58:08.986Z,100369.30
2022-07-30T13:00:50.870Z,100368.89
2022-07-30T13:03:25.915Z,100369.06
2022-07-30T13:05:56.101Z,100365.98
2022-07-30T13:08:46.812Z,100365.37
2022-07-30T13:11:18.562Z,100355.66
2022-07-30T13:13:49.230Z,100357.56
2022-07-30T13:16:19.109Z,100356.08
2022-07-30T13:18:50.378Z,100351.55
2022-07-30T13:21:21.168Z,100352.63
2022-07-30T13:23:52.148Z,100352.30
2022-07-30T13:26:24.506Z,100351.55
2022-07-30T13:28:58.697Z,100352.63
2022-07-30T13:31:26.746Z,100343.36
2022-07-30T13:33:56.632Z,100349.30
2022-07-30T13:36:27.801Z,100342.86
2022-07-30T13:38:57.336Z,100342.86
2022-07-30T13:41:27.271Z,100333.38
2022-07-30T13:43:58.163Z,100335.37
2022-07-30T13:46:28.024Z,100331.76
2022-07-30T13:49:00.476Z,100327.59
2022-07-30T13:51:30.315Z,100328.00
2022-07-30T13:53:59.438Z,100320.44
2022-07-30T13:56:28.720Z,100315.52
2022-07-30T13:58:58.727Z,100309.19
2022-07-30T14:01:28.382Z,100308.77
2022-07-30T14:03:57.443Z,100300.95
2022-07-30T14:06:28.509Z,100297.80
2022-07-30T14:08:59.915Z,100296.89
2022-07-30T14:11:31.633Z,100300.22
2022-07-30T14:14:00.729Z,100302.13
2022-07-30T14:16:46.170Z,100289.67
2022-07-30T14:19:01.686Z,100292.67
2022-07-30T14:21:32.756Z,100291.18
2022-07-30T14:24:04.708Z,100287.20
2022-07-30T14:26:37.629Z,100283.62
2022-07-30T14:29:06.863Z,100284.78
2022-07-30T14:31:36.761Z,100279.70
2022-07-30T14:34:07.259Z,100275.55
2022-07-30T14:36:37.895Z,100263.75
2022-07-30T14:39:07.428Z,100266.33
2022-07-30T14:41:38.924Z,100259.16
2022-07-30T14:44:09.594Z,100259.16
2022-07-30T14:47:01.942Z,100248.78
2022-07-30T14:49:13.004Z,100249.28
2022-07-30T14:51:44.196Z,100252.18
2022-07-30T14:54:14.994Z,100236.15
2022-07-30T14:56:46.576Z,100251.77
2022-07-30T14:59:19.572Z,100243.98
2022-07-30T15:01:49.546Z,100243.98
2022-07-30T15:04:18.782Z,100242.98
2022-07-30T15:06:48.208Z,100239.00
2022-07-30T15:09:19.813Z,100235.59
2022-07-30T15:12:08.561Z,100237.67
2022-07-30T15:14:20.585Z,100240.49
2022-07-30T15:16:52.121Z,100241.66
2022-07-30T15:19:22.991Z,100236.92
2022-07-30T15:21:54.079Z,100234.33
2022-07-30T15:24:26.298Z,100234.33
2022-07-30T15:26:56.841Z,100241.72
2022-07-30T15:29:30.279Z,100242.38
2022-07-30T15:32:01.792Z,100244.45
2022-07-30T15:34:35.347Z,100248.58
2022-07-30T15:37:06.218Z,100249.31
2022-07-30T15:39:36.939Z,100249.31
2022-07-30T15:42:07.468Z,100240.78
2022-07-30T15:44:42.296Z,100240.78
2022-07-30T15:47:12.992Z,100237.78
2022-07-30T15:49:42.093Z,100232.21
2022-07-30T15:52:11.664Z,100227.27
2022-07-30T15:54:42.441Z,100226.25
2022-07-30T15:57:13.359Z,100224.66
2022-07-30T15:59:42.950Z,100230.70
2022-07-30T16:02:13.381Z,100225.20
2022-07-30T16:04:42.484Z,100228.67
2022-07-30T16:07:13.376Z,100229.84
2022-07-30T16:09:42.508Z,100239.71
2022-07-30T16:12:11.782Z,100234.65
2022-07-30T16:14:43.109Z,100237.28
2022-07-30T16:17:15.061Z,100243.97
2022-07-30T16:19:44.834Z,100243.86
2022-07-30T16:22:24.100Z,100244.09
2022-07-30T16:24:49.113Z,100244.09
2022-07-30T16:27:21.401Z,100242.18
2022-07-30T16:29:53.004Z,100247.31
2022-07-30T16:32:23.758Z,100253.27
2022-07-30T16:34:52.988Z,100253.66
2022-07-30T16:37:23.946Z,100251.84
2022-07-30T16:39:53.438Z,100248.64
2022-07-30T16:42:22.860Z,100251.84
2022-07-30T16:44:53.748Z,100256.97
2022-07-30T16:47:24.381Z,100258.45
2022-07-30T16:49:57.035Z,100261.01
2022-07-30T16:52:27.149Z,100263.63
2022-07-30T16:54:58.323Z,100261.20
2022-07-30T16:57:29.934Z,100263.25
2022-07-30T17:00:00.324Z,100274.07
2022-07-30T17:02:31.308Z,100265.68
2022-07-30T17:05:00.929Z,100259.81
2022-07-30T17:07:30.076Z,100266.66
2022-07-30T17:10:00.063Z,100267.36
2022-07-30T17:12:31.584Z,100265.18
2022-07-30T17:15:02.587Z,100265.56
2022-07-30T17:17:33.077Z,100268.75
2022-07-30T17:20:05.690Z,100266.02
2022-07-30T17:22:42.712Z,100260.82
2022-07-30T17:25:11.523Z,100264.84
2022-07-30T17:27:41.548Z,100267.77
2022-07-30T17:30:13.853Z,100265.08
2022-07-30T17:32:44.038Z,100259.81
2022-07-30T17:35:15.179Z,100269.00
2022-07-30T17:37:45.134Z,100267.67
2022-07-30T17:40:29.867Z,100267.52
2022-07-30T17:42:48.120Z,100268.47
2022-07-30T17:45:17.142Z,100260.96
2022-07-30T17:47:47.416Z,100266.64
2022-07-30T17:50:17.599Z,100265.94
2022-07-30T17:52:48.829Z,100265.77
2022-07-30T17:55:19.494Z,100265.62
2022-07-30T17:57:49.150Z,100272.23
2022-07-30T18:00:20.939Z,100273.20
2022-07-30T18:02:51.684Z,100285.72
2022-07-30T18:05:22.940Z,100291.17
2022-07-30T18:07:51.951Z,100288.19
2022-07-30T18:10:22.114Z,100288.28
2022-07-30T18:12:53.059Z,100291.97
2022-07-30T18:15:23.167Z,100305.50
2022-07-30T18:17:54.632Z,100309.23
2022-07-30T18:20:25.172Z,100311.00
2022-07-30T18:22:55.122Z,100309.11
2022-07-30T18:25:26.122Z,100313.94
2022-07-30T18:27:55.999Z,100317.67
2022-07-30T18:30:26.399Z,100319.69
2022-07-30T18:32:57.117Z,100322.05
2022-07-30T18:35:27.247Z,100317.66
2022-07-30T18:37:57.330Z,100327.88
2022-07-30T18:40:26.676Z,100327.11
2022-07-30T18:42:56.258Z,100327.15
2022-07-30T18:45:27.978Z,100324.95
2022-07-30T18:47:57.889Z,100331.74
2022-07-30T18:50:28.065Z,100331.78
2022-07-30T18:52:57.561Z,100344.45
2022-07-30T18:55:26.762Z,100340.84
2022-07-30T18:57:57.516Z,100333.06
2022-07-30T19:00:34.366Z,100333.09
2022-07-30T19:03:00.465Z,100332.86
2022-07-30T19:05:30.767Z,100329.28
2022-07-30T19:08:00.607Z,100326.58
2022-07-30T19:10:30.455Z,100324.70
2022-07-30T19:13:00.981Z,100322.77
2022-07-30T19:15:30.752Z,100330.92
2022-07-30T19:18:00.675Z,100327.88
2022-07-30T19:20:30.677Z,100332.39
2022-07-30T19:23:06.867Z,100329.07
2022-07-30T19:25:37.139Z,100333.08
2022-07-30T19:28:07.220Z,100333.70
2022-07-30T19:30:37.352Z,100328.98
2022-07-30T19:33:14.402Z,100331.27
2022-07-30T19:35:39.787Z,100328.50
2022-07-30T19:38:09.782Z,100328.55
2022-07-30T19:40:42.071Z,100327.75
2022-07-30T19:43:12.484Z,100333.92
2022-07-30T19:45:46.677Z,100335.08
2022-07-30T19:48:14.595Z,100339.34
2022-07-30T19:50:43.759Z,100335.20
2022-07-30T19:53:16.235Z,100326.55
2022-07-30T19:55:46.219Z,100335.79
2022-07-30T19:58:17.715Z,100332.98
2022-07-30T20:00:49.768Z,100324.89
2022-07-30T20:03:25.497Z,100320.72
2022-07-30T20:05:58.523Z,100320.17
2022-07-30T20:08:24.888Z,100326.95
2022-07-30T20:10:57.323Z,100328.66
2022-07-30T20:13:45.523Z,100324.47
2022-07-30T20:15:59.849Z,100325.89
2022-07-30T20:18:29.581Z,100323.39
2022-07-30T20:20:59.911Z,100329.84
2022-07-30T20:23:31.993Z,100331.83
2022-07-30T20:26:03.921Z,100324.28
2022-07-30T20:28:35.664Z,100325.16
2022-07-30T20:31:05.958Z,100327.45
2022-07-30T20:33:37.868Z,100329.15
2022-07-30T20:36:09.635Z,100326.08
2022-07-30T20:38:39.259Z,100327.20
2022-07-30T20:41:11.032Z,100322.19
2022-07-30T20:43:46.230Z,100327.52
2022-07-30T20:46:14.817Z,100331.19
2022-07-30T20:48:46.213Z,100328.70
2022-07-30T20:51:15.855Z,100331.79
2022-07-30T20:53:45.491Z,100331.25
2022-07-30T20:56:15.032Z,100331.55
2022-07-30T20:58:47.414Z,100334.34
2022-07-30T21:01:18.100Z,100330.16
2022-07-30T21:03:48.968Z,100337.73
2022-07-30T21:06:19.402Z,100344.77
2022-07-30T21:08:49.125Z,100342.27
2022-07-30T21:11:19.846Z,100335.58
2022-07-30T21:13:51.412Z,100343.41
2022-07-30T21:16:23.530Z,100348.20
2022-07-30T21:18:54.755Z,100340.10
2022-07-30T21:21:29.321Z,100342.91
2022-07-30T21:23:58.131Z,100339.30
2022-07-30T21:26:29.051Z,100346.02
2022-07-30T21:29:00.523Z,100342.13
2022-07-30T21:32:00.458Z,100336.81
2022-07-30T21:34:01.147Z,100332.34
2022-07-30T21:36:30.207Z,100333.19
2022-07-30T21:39:00.275Z,100330.69
2022-07-30T21:41:39.926Z,100341.61
2022-07-30T21:44:03.122Z,100336.59
2022-07-30T21:46:34.254Z,100334.08
2022-07-30T21:49:05.555Z,100333.27
2022-07-30T21:51:37.693Z,100335.77
2022-07-30T21:54:08.762Z,100334.38
2022-07-30T21:56:41.536Z,100339.97
2022-07-30T21:59:10.711Z,100340.55
2022-07-30T22:01:47.453Z,100337.48
2022-07-30T22:04:11.859Z,100334.69
2022-07-30T22:06:42.452Z,100336.90
2022-07-30T22:09:18.845Z,100333.55
2022-07-30T22:11:49.277Z,100340.55
2022-07-30T22:14:18.968Z,100334.69
2022-07-30T22:16:48.635Z,100335.81
2022-07-30T22:19:18.721Z,100328.55
2022-07-30T22:22:01.946Z,100331.91
2022-07-30T22:24:29.329Z,100325.20
2022-07-30T22:26:53.821Z,100325.48
2022-07-30T22:29:23.034Z,100328.84
2022-07-30T22:31:52.548Z,100328.84
2022-07-30T22:34:23.580Z,100325.48
2022-07-30T22:36:53.356Z,100324.09
2022-07-30T22:39:31.490Z,100331.08
2022-07-30T22:41:56.367Z,100323.82
2022-07-30T22:44:26.375Z,100322.72
2022-07-30T22:46:56.154Z,100319.92
2022-07-30T22:52:05.031Z,100315.73
2022-07-30T22:54:27.651Z,100322.45
2022-07-30T22:56:57.230Z,100318.81
2022-07-30T23:00:00.022Z,100317.98
2022-07-30T23:02:01.387Z,100321.63
2022-07-30T23:04:31.639Z,100320.23
2022-07-30T23:07:02.651Z,100315.48
2022-07-30T23:09:49.468Z,100322.75
2022-07-30T23:12:05.843Z,100314.38
2022-07-30T23:12:34.234Z,100322.17
2022-07-30T23:14:37.969Z,100318.01
2022-07-30T23:17:09.636Z,100307.11
2022-07-30T23:19:39.281Z,100309.91
2022-07-30T23:22:10.023Z,100309.62
2022-07-30T23:24:39.880Z,100311.83
2022-07-30T23:27:09.622Z,100314.06
2022-07-30T23:29:38.558Z,100311.55
2022-07-30T23:32:09.014Z,100313.79
2022-07-30T23:34:38.695Z,100316.86
2022-07-30T23:37:11.756Z,100306.25
2022-07-30T23:39:39.535Z,100312.37
2022-07-30T23:42:09.458Z,100307.63
2022-07-30T23:44:38.420Z,100305.95
2022-07-30T23:47:08.260Z,100300.92
2022-07-30T23:49:37.294Z,100302.88
2022-07-30T23:52:07.235Z,100291.98
2022-07-30T23:54:37.162Z,100293.38
2022-07-30T23:57:07.129Z,100291.70
2022-07-30T23:59:40.754Z,100284.73
